Time;durP1;ratioP1;P1;durP2;ratioP2;P2;SDS_P1;SDS_P2;PMS_P1;PMS_P2;Temp;Humidity;BMP_temperature;BMP_pressure;BME280_temperature;BME280_humidity;BME280_pressure;Samples;Min_cycle;Max_cycle;Signal;HPM_P1;HPM_P2
2021/10/30 00:00:08;;;;;;;37.88;21.62;;;;;;;11.81;94.57;102229.32;1802787;77;20925;-56
2021/10/30 00:02:36;;;;;;;48.15;22.70;;;;;;;11.83;94.48;102233.77;1807950;77;21479;-56
2021/10/30 00:05:05;;;;;;;47.75;22.73;;;;;;;11.85;94.60;102227.04;1807710;77;21031;-56
2021/10/30 00:07:31;;;;;;;46.68;22.00;;;;;;;11.87;94.70;102226.08;1812542;77;21081;-56
2021/10/30 00:09:58;;;;;;;40.35;21.97;;;;;;;11.94;94.68;102213.42;1815904;77;21479;-56
2021/10/30 00:12:24;;;;;;;41.33;20.43;;;;;;;12.01;94.29;102217.80;1815065;77;21504;-57
2021/10/30 00:14:51;;;;;;;45.73;22.62;;;;;;;12.07;93.68;102210.58;1815618;77;20983;-55
2021/10/30 00:17:18;;;;;;;39.85;21.40;;;;;;;12.09;93.11;102212.77;1813720;77;21066;-57
2021/10/30 00:19:44;;;;;;;41.37;21.65;;;;;;;12.09;93.16;102216.80;1809558;77;21593;-56
2021/10/30 00:22:11;;;;;;;41.35;22.27;;;;;;;12.06;92.91;102220.42;1807416;77;21077;-56
2021/10/30 00:24:37;;;;;;;43.98;22.10;;;;;;;11.99;93.18;102222.77;1800232;77;21034;-62
2021/10/30 00:27:05;;;;;;;46.23;22.05;;;;;;;11.93;93.59;102215.69;1814823;77;20985;-62
2021/10/30 00:29:33;;;;;;;41.70;21.57;;;;;;;11.90;93.83;102222.47;1803122;77;21056;-63
2021/10/30 00:32:00;;;;;;;43.15;23.38;;;;;;;11.89;94.28;102219.34;1809375;77;21029;-64
2021/10/30 00:34:27;;;;;;;54.90;23.75;;;;;;;11.90;94.70;102215.27;1804041;77;21558;-63
2021/10/30 00:36:53;;;;;;;38.53;21.23;;;;;;;11.89;94.76;102210.81;1812999;77;21030;-62
2021/10/30 00:39:21;;;;;;;44.45;23.05;;;;;;;11.86;95.21;102220.27;1801326;77;20987;-64
2021/10/30 00:41:52;;;;;;;49.98;23.22;;;;;;;11.83;95.57;102211.40;1814252;77;21629;-63
2021/10/30 00:44:20;;;;;;;51.55;22.95;;;;;;;11.84;96.03;102214.04;1811919;77;21030;-62
2021/10/30 00:46:49;;;;;;;43.65;22.20;;;;;;;11.95;96.64;102204.45;1824678;77;21782;-62
2021/10/30 00:49:17;;;;;;;44.08;23.65;;;;;;;12.09;96.51;102210.09;1811651;77;21026;-62
2021/10/30 00:51:46;;;;;;;45.38;22.07;;;;;;;12.15;96.21;102213.52;1807937;77;20979;-62
2021/10/30 00:54:13;;;;;;;42.88;23.20;;;;;;;12.20;96.29;102213.45;1814004;77;21098;-62
2021/10/30 00:56:42;;;;;;;47.45;24.95;;;;;;;12.28;96.32;102221.38;1810747;77;21443;-63
2021/10/30 00:59:12;;;;;;;45.50;23.12;;;;;;;12.28;96.00;102210.18;1799770;77;21130;-62
2021/10/30 01:01:41;;;;;;;47.33;23.22;;;;;;;12.30;96.05;102209.69;1807519;77;21069;-56
2021/10/30 01:04:08;;;;;;;41.10;22.67;;;;;;;12.31;95.96;102214.15;1810822;77;21092;-63
2021/10/30 01:06:37;;;;;;;43.52;23.20;;;;;;;12.28;95.66;102208.84;1818508;77;21049;-56
2021/10/30 01:09:04;;;;;;;48.73;24.45;;;;;;;12.28;96.05;102220.94;1804485;77;21054;-55
2021/10/30 01:11:31;;;;;;;42.20;22.20;;;;;;;12.27;96.32;102215.12;1814580;77;21114;-57
2021/10/30 01:13:59;;;;;;;50.30;24.15;;;;;;;12.28;96.42;102223.63;1807006;77;21108;-63
2021/10/30 01:16:25;;;;;;;52.83;24.23;;;;;;;12.24;96.51;102223.22;1809462;77;21092;-63
2021/10/30 01:18:52;;;;;;;49.40;25.60;;;;;;;12.19;96.92;102211.67;1812607;77;21039;-63
2021/10/30 01:21:27;;;;;;;49.98;25.40;;;;;;;12.19;97.34;102226.47;1807892;77;21069;-63
2021/10/30 01:23:55;;;;;;;;;;;;;;;12.22;97.51;102216.99;1804011;77;21091;-64
2021/10/30 01:26:21;;;;;;;43.08;22.85;;;;;;;12.23;97.42;102220.58;1807933;77;20408;-63
2021/10/30 01:28:49;;;;;;;50.88;23.80;;;;;;;12.21;97.62;102225.11;1806325;77;21028;-64
2021/10/30 01:31:15;;;;;;;52.35;24.80;;;;;;;12.20;97.62;102232.27;1808279;76;20971;-63
2021/10/30 01:33:45;;;;;;;45.85;22.67;;;;;;;12.21;98.01;102221.94;1808511;77;21405;-62
2021/10/30 01:36:14;;;;;;;55.75;26.30;;;;;;;12.29;97.92;102229.44;1812477;77;21179;-62
2021/10/30 01:38:41;;;;;;;48.50;24.77;;;;;;;12.32;97.49;102220.40;1813909;77;21486;-64
2021/10/30 01:41:08;;;;;;;46.10;24.20;;;;;;;12.36;97.38;102218.55;1812785;77;21053;-62
2021/10/30 01:43:34;;;;;;;53.45;25.60;;;;;;;12.31;96.81;102223.56;1802861;77;20996;-62
2021/10/30 01:46:01;;;;;;;55.30;25.30;;;;;;;12.24;97.32;102221.88;1806089;77;21488;-62
2021/10/30 01:48:29;;;;;;;51.73;25.08;;;;;;;12.26;97.60;102226.77;1797961;77;21061;-62
2021/10/30 01:50:56;;;;;;;50.67;24.00;;;;;;;12.29;97.59;102232.12;1798389;77;20999;-65
2021/10/30 01:53:23;;;;;;;47.50;24.27;;;;;;;12.28;97.16;102224.97;1804246;77;21042;-64
2021/10/30 01:55:50;;;;;;;44.77;23.62;;;;;;;12.23;97.03;102234.03;1814317;77;21303;-63
2021/10/30 01:58:17;;;;;;;47.73;25.20;;;;;;;12.20;97.36;102226.02;1817380;77;21058;-62
2021/10/30 02:00:46;;;;;;;51.40;24.87;;;;;;;12.22;97.35;102233.60;1803777;77;21550;-64
2021/10/30 02:03:14;;;;;;;48.48;25.02;;;;;;;12.21;97.34;102235.39;1816561;77;21050;-63
2021/10/30 02:05:42;;;;;;;46.63;23.30;;;;;;;12.21;97.40;102233.17;1795899;77;20994;-65
2021/10/30 02:08:09;;;;;;;46.13;23.32;;;;;;;12.17;97.12;102230.98;1813680;77;21632;-64
2021/10/30 02:10:37;;;;;;;60.03;23.20;;;;;;;12.14;96.95;102237.77;1803408;77;21030;-64
2021/10/30 02:13:04;;;;;;;48.80;23.65;;;;;;;12.12;97.33;102232.41;1819232;77;21590;-64
2021/10/30 02:15:32;;;;;;;44.63;23.12;;;;;;;12.16;97.41;102234.15;1810666;76;21018;-63
2021/10/30 02:17:58;;;;;;;44.27;22.45;;;;;;;12.16;96.92;102227.87;1817473;77;21053;-63
2021/10/30 02:20:25;;;;;;;50.17;23.52;;;;;;;12.12;96.92;102236.91;1805123;77;21097;-64
2021/10/30 02:22:52;;;;;;;37.23;20.90;;;;;;;12.13;97.05;102235.52;1817768;77;21027;-63
2021/10/30 02:25:23;;;;;;;43.92;22.73;;;;;;;12.16;96.84;102235.94;1812788;77;21142;-63
2021/10/30 02:27:51;;;;;;;38.23;22.02;;;;;;;12.14;96.47;102235.08;1805989;77;21083;-64
2021/10/30 02:30:18;;;;;;;39.20;21.37;;;;;;;12.12;96.78;102242.29;1804950;77;21069;-63
2021/10/30 02:32:45;;;;;;;47.60;22.20;;;;;;;12.17;96.99;102247.12;1815466;77;21073;-62
2021/10/30 02:35:12;;;;;;;34.63;21.20;;;;;;;12.30;97.02;102245.09;1832968;76;21010;-64
2021/10/30 02:37:40;;;;;;;41.45;21.30;;;;;;;12.44;96.38;102247.52;1822945;77;21128;-63
2021/10/30 02:40:08;;;;;;;45.73;21.97;;;;;;;12.48;95.72;102255.09;1820336;76;21119;-64
2021/10/30 02:42:35;;;;;;;38.92;21.82;;;;;;;12.49;95.17;102257.77;1833797;77;22617;-64
2021/10/30 02:45:03;;;;;;;42.53;21.07;;;;;;;12.46;94.80;102251.06;1830528;77;21050;-63
2021/10/30 02:47:31;;;;;;;42.83;22.22;;;;;;;12.44;94.67;102252.91;1822416;77;21044;-64
2021/10/30 02:49:58;;;;;;;51.37;23.32;;;;;;;12.41;94.65;102263.28;1820437;77;21114;-64
2021/10/30 02:52:25;;;;;;;39.10;21.97;;;;;;;12.41;94.85;102263.72;1827878;77;21052;-66
2021/10/30 02:54:53;;;;;;;41.90;20.52;;;;;;;12.36;94.55;102262.93;1817985;76;21467;-64
2021/10/30 02:57:20;;;;;;;45.75;22.98;;;;;;;12.27;94.64;102267.58;1820498;76;21779;-64
2021/10/30 02:59:49;;;;;;;49.27;23.40;;;;;;;12.20;94.58;102267.23;1824188;76;20987;-63
2021/10/30 03:02:15;;;;;;;39.20;22.07;;;;;;;12.12;94.86;102264.67;1828223;77;21196;-64
2021/10/30 03:04:42;;;;;;;50.35;22.22;;;;;;;12.08;95.44;102272.36;1819825;76;21010;-64
2021/10/30 03:07:09;;;;;;;44.98;23.42;;;;;;;12.08;96.01;102272.83;1831024;77;21099;-65
2021/10/30 03:09:35;;;;;;;45.12;23.77;;;;;;;12.08;96.07;102272.83;1824180;77;21027;-64
2021/10/30 03:12:04;;;;;;;45.12;24.50;;;;;;;12.04;96.27;102268.83;1825218;76;21542;-63
2021/10/30 03:14:32;;;;;;;46.85;24.43;;;;;;;12.03;96.51;102267.05;1815143;77;21076;-64
2021/10/30 03:16:58;;;;;;;50.60;24.67;;;;;;;12.00;96.53;102268.42;1829032;76;21033;-63
2021/10/30 03:19:25;;;;;;;47.60;25.10;;;;;;;11.98;96.75;102272.06;1818828;76;21454;-63
2021/10/30 03:21:53;;;;;;;54.85;27.25;;;;;;;11.93;96.88;102275.27;1813804;77;21069;-64
2021/10/30 03:24:21;;;;;;;49.93;25.77;;;;;;;11.95;97.23;102271.65;1833642;77;21004;-64
2021/10/30 03:26:47;;;;;;;53.65;26.45;;;;;;;11.93;96.97;102276.16;1819759;77;21089;-62
2021/10/30 03:29:14;;;;;;;47.23;25.72;;;;;;;11.87;97.35;102265.52;1826576;76;21064;-63
2021/10/30 03:31:40;;;;;;;51.42;26.27;;;;;;;11.89;97.48;102274.45;1823668;77;21459;-62
2021/10/30 03:34:07;;;;;;;53.13;26.95;;;;;;;11.82;97.18;102268.72;1826429;76;21124;-63
2021/10/30 03:36:34;;;;;;;54.42;26.42;;;;;;;11.70;97.40;102272.05;1819408;77;21422;-64
2021/10/30 03:39:00;;;;;;;50.33;26.90;;;;;;;11.60;97.75;102266.36;1819886;77;21747;-62
2021/10/30 03:41:27;;;;;;;54.38;27.40;;;;;;;11.52;97.91;102264.25;1823402;77;22635;-63
2021/10/30 03:43:54;;;;;;;59.05;27.82;;;;;;;11.46;98.46;102267.47;1809154;77;21085;-63
2021/10/30 03:46:22;;;;;;;52.73;27.52;;;;;;;11.43;98.68;102270.20;1814562;77;21086;-64
2021/10/30 03:48:49;;;;;;;54.18;27.48;;;;;;;11.37;98.48;102275.64;1815446;77;21026;-63
2021/10/30 03:51:16;;;;;;;64.75;27.98;;;;;;;11.27;98.73;102274.91;1817511;77;21177;-63
2021/10/30 03:53:45;;;;;;;58.33;28.00;;;;;;;11.22;99.14;102274.05;1806868;77;20960;-63
2021/10/30 03:56:11;;;;;;;53.90;26.73;;;;;;;11.17;99.43;102279.51;1815349;77;21012;-63
2021/10/30 03:58:38;;;;;;;58.20;26.33;;;;;;;11.07;99.85;102283.20;1825159;77;21059;-63
2021/10/30 04:01:05;;;;;;;60.17;27.45;;;;;;;10.98;100.00;102267.23;1811903;77;21030;-63
2021/10/30 04:03:32;;;;;;;61.75;27.37;;;;;;;10.95;100.00;102273.98;1812073;77;21111;-63
2021/10/30 04:05:59;;;;;;;55.30;26.23;;;;;;;10.88;100.00;102278.05;1808883;77;21074;-63
2021/10/30 04:08:25;;;;;;;63.70;28.55;;;;;;;10.80;100.00;102279.95;1824614;77;21057;-56
2021/10/30 04:10:52;;;;;;;60.60;28.83;;;;;;;10.77;100.00;102275.06;1812273;77;21057;-63
2021/10/30 04:13:18;;;;;;;63.55;30.12;;;;;;;10.77;100.00;102279.98;1825509;77;21066;-55
2021/10/30 04:15:45;;;;;;;62.93;28.27;;;;;;;10.74;100.00;102273.32;1810789;77;22131;-63
2021/10/30 04:18:11;;;;;;;64.25;29.15;;;;;;;10.74;100.00;102277.34;1820306;77;20969;-63
2021/10/30 04:20:38;;;;;;;58.75;28.73;;;;;;;10.71;100.00;102276.02;1826017;77;21664;-62
2021/10/30 04:23:05;;;;;;;63.02;29.25;;;;;;;10.69;100.00;102276.48;1794729;78;21054;-62
2021/10/30 04:25:31;;;;;;;62.58;29.55;;;;;;;10.67;100.00;102280.55;1809458;77;21492;-62
2021/10/30 04:27:58;;;;;;;69.32;30.88;;;;;;;10.65;100.00;102276.09;1816861;77;21087;-63
2021/10/30 04:30:25;;;;;;;66.15;29.72;;;;;;;10.56;100.00;102279.31;1819688;77;21067;-62
2021/10/30 04:32:52;;;;;;;58.25;27.22;;;;;;;10.53;100.00;102287.84;1812698;77;21034;-62
2021/10/30 04:35:19;;;;;;;63.17;28.70;;;;;;;10.49;100.00;102284.75;1794385;77;21050;-62
2021/10/30 04:37:45;;;;;;;59.95;28.92;;;;;;;10.37;100.00;102279.03;1818698;77;21416;-56
2021/10/30 04:40:12;;;;;;;65.05;30.60;;;;;;;10.29;100.00;102271.95;1815717;77;21639;-64
2021/10/30 04:42:39;;;;;;;60.95;28.60;;;;;;;10.25;100.00;102274.67;1808528;77;21015;-64
2021/10/30 04:45:07;;;;;;;58.73;28.45;;;;;;;10.16;100.00;102285.02;1811901;77;21040;-62
2021/10/30 04:47:33;;;;;;;65.00;28.57;;;;;;;10.01;100.00;102277.53;1809551;77;21102;-63
2021/10/30 04:50:00;;;;;;;59.80;27.87;;;;;;;9.93;100.00;102279.41;1802653;77;21526;-63
2021/10/30 04:52:27;;;;;;;60.48;27.52;;;;;;;9.88;100.00;102283.45;1808053;77;21073;-62
2021/10/30 04:54:54;;;;;;;68.90;29.50;;;;;;;9.83;100.00;102289.73;1805345;77;21006;-63
2021/10/30 04:57:21;;;;;;;60.88;29.35;;;;;;;9.77;100.00;102289.34;1813872;77;21030;-63
2021/10/30 04:59:47;;;;;;;60.23;27.07;;;;;;;9.68;100.00;102287.62;1811864;77;21011;-62
2021/10/30 05:02:14;;;;;;;56.85;27.98;;;;;;;9.60;100.00;102305.07;1816393;77;21474;-62
2021/10/30 05:04:41;;;;;;;59.05;27.10;;;;;;;9.57;100.00;102291.70;1816266;77;21924;-64
2021/10/30 05:07:07;;;;;;;61.92;27.95;;;;;;;9.56;100.00;102299.73;1811410;77;20998;-63
2021/10/30 05:09:34;;;;;;;55.73;28.23;;;;;;;9.51;100.00;102301.55;1818314;77;21827;-62
2021/10/30 05:12:01;;;;;;;57.88;26.65;;;;;;;9.48;100.00;102300.23;1800439;77;21042;-63
2021/10/30 05:14:27;;;;;;;57.95;28.10;;;;;;;9.45;100.00;102293.09;1812022;77;21076;-62
2021/10/30 05:16:56;;;;;;;58.25;29.40;;;;;;;9.41;100.00;102297.60;1796238;77;20944;-63
2021/10/30 05:19:22;;;;;;;60.55;28.38;;;;;;;9.44;100.00;102302.03;1818785;77;21497;-63
2021/10/30 05:21:49;;;;;;;54.10;28.10;;;;;;;9.48;100.00;102293.55;1805972;77;21012;-62
2021/10/30 05:24:16;;;;;;;55.88;26.87;;;;;;;9.50;100.00;102305.13;1813270;77;21087;-61
2021/10/30 05:26:43;;;;;;;56.35;27.30;;;;;;;9.53;100.00;102295.30;1801042;77;21018;-62
2021/10/30 05:29:10;;;;;;;56.37;29.20;;;;;;;9.57;100.00;102292.14;1813886;77;21163;-63
2021/10/30 05:31:37;;;;;;;58.63;27.80;;;;;;;9.59;100.00;102296.59;1813487;77;21625;-63
2021/10/30 05:34:04;;;;;;;57.17;28.07;;;;;;;9.65;100.00;102295.67;1815087;77;21097;-62
2021/10/30 05:36:41;;;;;;;60.43;28.00;;;;;;;9.69;100.00;102304.13;1802512;77;20935;-63
2021/10/30 05:39:26;;;;;;;54.60;28.05;;;;;;;9.64;100.00;102300.59;1796082;77;21035;-64
2021/10/30 05:41:53;;;;;;;51.98;25.10;;;;;;;9.66;100.00;102306.83;1810329;77;21568;-62
2021/10/30 05:44:19;;;;;;;51.95;26.93;;;;;;;9.67;100.00;102315.30;1814143;77;21205;-62
2021/10/30 05:46:46;;;;;;;56.42;27.77;;;;;;;9.64;100.00;102309.06;1819734;77;21033;-62
2021/10/30 05:49:14;;;;;;;54.10;26.12;;;;;;;9.60;100.00;102309.52;1805446;77;21040;-62
2021/10/30 05:51:41;;;;;;;61.63;27.90;;;;;;;9.56;100.00;102318.47;1810803;77;20992;-62
2021/10/30 05:54:08;;;;;;;53.85;26.68;;;;;;;9.52;100.00;102315.38;1808531;77;21033;-64
2021/10/30 05:56:35;;;;;;;51.02;25.50;;;;;;;9.56;100.00;102314.03;1809748;77;21052;-62
2021/10/30 05:59:02;;;;;;;54.13;26.90;;;;;;;9.57;100.00;102304.19;1807235;77;21016;-63
2021/10/30 06:01:29;;;;;;;49.58;25.80;;;;;;;9.58;100.00;102314.91;1806626;77;21481;-62
2021/10/30 06:03:55;;;;;;;51.50;26.65;;;;;;;9.66;100.00;102321.99;1803657;77;21043;-63
2021/10/30 06:06:22;;;;;;;49.58;25.57;;;;;;;9.67;100.00;102322.00;1793067;77;21130;-63
2021/10/30 06:08:48;;;;;;;52.67;24.37;;;;;;;9.69;100.00;102325.55;1816468;77;21048;-63
2021/10/30 06:11:16;;;;;;;48.28;24.92;;;;;;;9.68;100.00;102325.11;1805512;77;21022;-62
2021/10/30 06:13:43;;;;;;;55.65;27.50;;;;;;;9.65;100.00;102314.86;1803732;77;20992;-63
2021/10/30 06:16:10;;;;;;;54.00;25.48;;;;;;;9.67;100.00;102316.64;1808995;77;21038;-62
2021/10/30 06:18:37;;;;;;;55.58;26.15;;;;;;;9.72;100.00;102317.49;1806505;77;21067;-62
2021/10/30 06:21:03;;;;;;;47.90;25.68;;;;;;;9.77;100.00;102325.51;1801587;77;21023;-62
2021/10/30 06:23:30;;;;;;;56.90;27.87;;;;;;;9.80;100.00;102317.87;1822026;76;21065;-61
2021/10/30 06:25:57;;;;;;;49.65;26.15;;;;;;;9.86;100.00;102317.40;1811159;77;21499;-63
2021/10/30 06:28:24;;;;;;;53.00;26.65;;;;;;;9.91;100.00;102319.15;1803196;77;21031;-63
2021/10/30 06:30:51;;;;;;;50.45;26.57;;;;;;;9.98;100.00;102323.12;1807334;77;21497;-63
2021/10/30 06:33:19;;;;;;;52.83;25.72;;;;;;;9.99;100.00;102324.89;1817087;77;21050;-64
2021/10/30 06:35:45;;;;;;;52.53;26.35;;;;;;;9.96;100.00;102319.56;1806706;77;21108;-64
2021/10/30 06:38:12;;;;;;;46.35;24.90;;;;;;;9.91;100.00;102325.41;1820333;77;21039;-62
2021/10/30 06:40:39;;;;;;;47.08;24.47;;;;;;;9.89;100.00;102325.88;1809197;77;21012;-64
2021/10/30 06:43:06;;;;;;;48.55;24.72;;;;;;;9.91;100.00;102329.87;1818070;76;22321;-64
2021/10/30 06:45:33;;;;;;;47.43;26.00;;;;;;;9.87;100.00;102331.70;1813997;77;21242;-63
2021/10/30 06:47:59;;;;;;;48.52;25.12;;;;;;;9.84;100.00;102341.10;1818538;77;21005;-64
2021/10/30 06:50:30;;;;;;;46.88;24.32;;;;;;;9.85;100.00;102329.48;1809155;77;22096;-64
2021/10/30 06:52:56;;;;;;;50.50;26.05;;;;;;;9.88;100.00;102324.10;1810899;77;21410;-63
2021/10/30 06:55:22;;;;;;;55.70;26.25;;;;;;;9.93;100.00;102331.65;1804826;77;21113;-63
2021/10/30 06:57:50;;;;;;;49.65;24.43;;;;;;;10.02;100.00;102328.89;1810089;77;20940;-66
2021/10/30 07:00:16;;;;;;;51.85;24.87;;;;;;;10.08;100.00;102324.41;1808779;77;21109;-63
2021/10/30 07:02:44;;;;;;;45.03;23.83;;;;;;;10.11;100.00;102332.42;1803531;77;21055;-64
2021/10/30 07:05:12;;;;;;;48.78;24.18;;;;;;;10.13;100.00;102337.31;1801236;77;21057;-63
2021/10/30 07:07:39;;;;;;;42.70;23.27;;;;;;;10.10;100.00;102321.27;1805986;79;21595;-64
2021/10/30 07:10:07;;;;;;;44.42;23.77;;;;;;;10.13;100.00;102333.30;1800288;77;21451;-64
2021/10/30 07:12:37;;;;;;;41.08;22.25;;;;;;;10.14;100.00;102329.71;1804559;77;21522;-64
2021/10/30 07:15:06;;;;;;;44.55;23.38;;;;;;;10.17;100.00;102329.69;1801529;77;21466;-65
2021/10/30 07:17:34;;;;;;;42.53;23.40;;;;;;;10.18;100.00;102331.46;1801154;77;20970;-66
2021/10/30 07:20:01;;;;;;;45.78;23.35;;;;;;;10.13;100.00;102330.62;1805950;77;21560;-64
2021/10/30 07:22:27;;;;;;;45.00;23.05;;;;;;;10.07;100.00;102330.67;1807401;77;21001;-63
2021/10/30 07:24:54;;;;;;;42.65;22.52;;;;;;;10.07;100.00;102344.07;1805529;78;21051;-65
2021/10/30 07:27:21;;;;;;;39.20;22.55;;;;;;;10.03;100.00;102361.48;1801440;77;21120;-64
2021/10/30 07:29:49;;;;;;;40.00;22.40;;;;;;;9.95;100.00;102358.45;1802188;77;20987;-66
2021/10/30 07:32:17;;;;;;;42.80;22.58;;;;;;;9.85;100.00;102340.20;1803629;77;21751;-65
2021/10/30 07:34:43;;;;;;;40.92;21.75;;;;;;;9.74;100.00;102342.94;1810512;77;21054;-64
2021/10/30 07:37:10;;;;;;;46.00;23.45;;;;;;;9.68;100.00;102338.94;1810857;77;21326;-56
2021/10/30 07:39:37;;;;;;;43.85;23.02;;;;;;;9.66;100.00;102332.70;1800927;79;21058;-59
2021/10/30 07:42:05;;;;;;;41.48;23.42;;;;;;;9.70;100.00;102332.69;1803288;77;21132;-56
2021/10/30 07:44:32;;;;;;;40.33;21.87;;;;;;;9.78;100.00;102334.42;1805475;79;21827;-57
2021/10/30 07:46:59;;;;;;;38.80;21.20;;;;;;;9.78;100.00;102328.63;1801410;77;21049;-57
2021/10/30 07:49:27;;;;;;;41.48;21.90;;;;;;;9.77;100.00;102333.98;1808413;77;21503;-58
2021/10/30 07:51:53;;;;;;;36.85;21.07;;;;;;;9.73;100.00;102324.63;1809595;77;21069;-64
2021/10/30 07:54:20;;;;;;;38.60;22.55;;;;;;;9.70;100.00;102338.05;1796703;77;21034;-56
2021/10/30 07:56:47;;;;;;;36.73;20.48;;;;;;;9.73;100.00;102340.70;1809586;77;21456;-56
2021/10/30 07:59:14;;;;;;;42.40;22.58;;;;;;;9.79;100.00;102328.16;1797641;77;21027;-57
2021/10/30 08:01:40;;;;;;;40.75;22.90;;;;;;;9.79;100.00;102325.48;1800559;77;21170;-57
2021/10/30 08:04:07;;;;;;;43.92;23.20;;;;;;;9.81;100.00;102329.03;1811174;77;21093;-57
2021/10/30 08:06:34;;;;;;;43.50;24.18;;;;;;;9.85;100.00;102341.08;1807479;77;21230;-57
2021/10/30 08:09:01;;;;;;;37.38;22.67;;;;;;;9.87;100.00;102333.91;1802966;77;21725;-56
2021/10/30 08:11:27;;;;;;;36.55;20.08;;;;;;;9.90;100.00;102330.33;1805230;77;21566;-56
2021/10/30 08:13:54;;;;;;;38.33;22.32;;;;;;;9.92;100.00;102320.49;1802897;77;21019;-57
2021/10/30 08:16:21;;;;;;;37.48;22.20;;;;;;;9.91;99.56;102317.38;1804495;77;21078;-56
2021/10/30 08:18:48;;;;;;;41.70;22.80;;;;;;;9.86;99.70;102324.09;1804394;77;21043;-56
2021/10/30 08:21:14;;;;;;;38.88;22.95;;;;;;;9.78;99.31;102331.30;1805009;77;21105;-58
2021/10/30 08:23:41;;;;;;;38.05;21.62;;;;;;;9.70;99.56;102336.70;1806052;77;20980;-56
2021/10/30 08:26:08;;;;;;;38.25;21.30;;;;;;;9.70;99.90;102319.30;1804545;77;21094;-56
2021/10/30 08:28:34;;;;;;;40.98;22.32;;;;;;;9.74;100.00;102321.05;1803549;77;21436;-56
2021/10/30 08:31:01;;;;;;;33.53;20.80;;;;;;;9.80;100.00;102326.83;1804858;78;22218;-56
2021/10/30 08:33:28;;;;;;;39.70;22.07;;;;;;;9.87;100.00;102323.66;1801028;79;21114;-57
2021/10/30 08:35:54;;;;;;;37.93;21.50;;;;;;;9.91;99.48;102325.41;1803257;78;21051;-56
2021/10/30 08:38:21;;;;;;;40.45;22.65;;;;;;;9.87;99.02;102332.57;1807463;78;21023;-57
2021/10/30 08:40:48;;;;;;;35.20;21.77;;;;;;;9.87;99.39;102320.98;1803446;77;21532;-57
2021/10/30 08:43:23;;;;;;;38.33;22.15;;;;;;;9.94;99.53;102324.48;1804079;79;21042;-56
2021/10/30 08:45:51;;;;;;;42.58;21.93;;;;;;;10.01;99.64;102331.13;1797438;77;21868;-57
2021/10/30 08:48:20;;;;;;;38.63;21.52;;;;;;;10.10;98.71;102319.92;1807374;77;20962;-58
2021/10/30 08:50:51;;;;;;;36.30;20.65;;;;;;;10.08;98.21;102313.69;1803222;77;21536;-56
2021/10/30 08:53:19;;;;;;;39.30;21.62;;;;;;;10.01;98.09;102317.73;1804598;78;21040;-56
2021/10/30 08:55:48;;;;;;;37.23;21.82;;;;;;;9.99;97.94;102306.14;1807240;77;21035;-56
2021/10/30 08:58:16;;;;;;;36.88;21.05;;;;;;;9.95;98.17;102297.69;1805646;77;20955;-56
2021/10/30 09:00:48;;;;;;;39.13;21.45;;;;;;;9.98;98.84;102293.64;1804094;77;21132;-56
2021/10/30 09:03:18;;;;;;;37.58;21.20;;;;;;;10.04;99.07;102308.80;1807864;77;21024;-57
2021/10/30 09:05:49;;;;;;;41.37;22.10;;;;;;;10.07;98.31;102296.70;1802684;77;21022;-57
2021/10/30 09:08:17;;;;;;;40.28;21.77;;;;;;;10.03;98.11;102299.84;1809465;77;21133;-56
2021/10/30 09:10:48;;;;;;;40.03;21.20;;;;;;;10.01;97.72;102308.35;1799915;77;21037;-57
2021/10/30 09:13:15;;;;;;;37.17;21.68;;;;;;;9.95;97.88;102300.84;1804064;77;21090;-57
2021/10/30 09:15:52;;;;;;;39.13;22.50;;;;;;;9.91;98.17;102293.27;1808390;77;21014;-57
2021/10/30 09:18:31;;;;;;;44.38;25.68;;;;;;;9.93;98.46;102291.45;1805723;77;21038;-56
2021/10/30 09:21:07;;;;;;;42.38;23.62;;;;;;;9.95;98.45;102286.97;1804913;77;21019;-55
2021/10/30 09:23:38;;;;;;;46.30;24.98;;;;;;;9.97;98.58;102277.13;1808358;77;21060;-57
2021/10/30 09:26:18;;;;;;;43.52;23.50;;;;;;;10.02;98.54;102287.82;1796582;77;21090;-56
2021/10/30 09:28:55;;;;;;;46.30;24.85;;;;;;;10.06;98.40;102279.28;1795043;77;21069;-56
2021/10/30 09:31:26;;;;;;;42.17;25.05;;;;;;;10.12;98.48;102291.31;1797515;77;21051;-56
2021/10/30 09:33:59;;;;;;;44.13;25.23;;;;;;;10.14;98.22;102294.87;1803097;77;21035;-56
2021/10/30 09:36:41;;;;;;;45.30;25.43;;;;;;;10.17;98.08;102284.12;1807442;77;21105;-57
2021/10/30 09:39:14;;;;;;;42.25;23.47;;;;;;;10.23;98.16;102271.98;1795827;77;21073;-56
2021/10/30 09:41:45;;;;;;;45.03;25.05;;;;;;;10.29;97.88;102279.09;1803060;78;21599;-57
2021/10/30 09:44:18;;;;;;;40.05;22.70;;;;;;;10.34;97.78;102267.00;1802023;77;21006;-56
2021/10/30 09:46:58;;;;;;;38.80;23.62;;;;;;;10.43;97.50;102275.88;1796064;77;22461;-56
2021/10/30 09:49:29;;;;;;;37.42;22.77;;;;;;;10.49;96.83;102280.26;1764201;78;22569;-59
2021/10/30 09:52:09;;;;;;;40.20;22.62;;;;;;;10.48;96.71;102282.98;1801414;79;20987;-64
2021/10/30 09:54:41;;;;;;;37.90;22.98;;;;;;;10.50;96.52;102275.37;1800246;77;21039;-63
2021/10/30 09:57:29;;;;;;;35.17;20.95;;;;;;;10.49;96.64;102268.20;1801860;77;21027;-64
2021/10/30 09:59:58;;;;;;;35.50;21.17;;;;;;;10.57;96.73;102278.41;1800697;77;20951;-63
2021/10/30 10:02:26;;;;;;;36.88;22.07;;;;;;;10.58;96.00;102285.55;1796233;79;21098;-63
2021/10/30 10:04:53;;;;;;;38.35;22.37;;;;;;;10.58;96.44;102272.14;1803985;78;21042;-64
2021/10/30 10:07:21;;;;;;;44.45;21.42;;;;;;;10.65;96.68;102268.04;1800128;77;21132;-63
2021/10/30 10:09:52;;;;;;;39.73;21.50;;;;;;;10.72;96.06;102267.05;1804025;78;20978;-63
2021/10/30 10:12:19;;;;;;;40.15;20.60;;;;;;;10.75;96.50;102268.39;1800729;77;21760;-63
2021/10/30 10:14:46;;;;;;;33.10;20.57;;;;;;;10.79;96.06;102267.45;1806447;77;21133;-63
2021/10/30 10:17:13;;;;;;;34.18;20.43;;;;;;;10.79;95.96;102267.45;1799519;77;21066;-63
2021/10/30 10:19:41;;;;;;;30.95;19.52;;;;;;;10.79;96.01;102259.39;1798420;78;21520;-63
2021/10/30 10:22:08;;;;;;;34.27;19.95;;;;;;;10.83;96.00;102253.08;1782469;77;20994;-62
2021/10/30 10:24:36;;;;;;;36.25;21.42;;;;;;;10.87;96.00;102261.52;1797843;78;21001;-63
2021/10/30 10:27:05;;;;;;;33.28;19.98;;;;;;;10.91;95.63;102261.05;1796776;77;21547;-63
2021/10/30 10:29:37;;;;;;;34.15;20.45;;;;;;;10.92;95.23;102252.08;1797809;78;21034;-57
2021/10/30 10:32:18;;;;;;;32.63;20.32;;;;;;;10.89;95.36;102246.29;1801127;77;21113;-56
2021/10/30 10:34:46;;;;;;;35.17;19.40;;;;;;;10.92;95.81;102243.13;1800524;79;21144;-58
2021/10/30 10:37:47;;;;;;;;;;;;;;;;;;;;;
2021/10/30 10:40:30;;;;;;;33.67;20.30;;;;;;;10.94;95.48;102252.05;1766848;79;21039;-57
2021/10/30 10:42:57;;;;;;;34.13;20.30;;;;;;;10.97;96.04;102254.72;1775953;79;20845;-62
2021/10/30 10:45:23;;;;;;;33.40;19.23;;;;;;;11.01;95.75;102251.08;1757919;79;21059;-62
2021/10/30 10:47:54;;;;;;;32.80;19.65;;;;;;;11.06;96.03;102245.19;1771847;79;21024;-63
2021/10/30 10:50:35;;;;;;;32.45;19.48;;;;;;;11.12;95.82;102243.76;1774139;79;21059;-64
2021/10/30 10:53:15;;;;;;;36.40;20.75;;;;;;;11.17;95.55;102236.55;1775797;79;21053;-63
2021/10/30 10:55:53;;;;;;;32.13;19.17;;;;;;;11.18;95.37;102232.96;1775353;79;21113;-63
2021/10/30 10:58:21;;;;;;;31.48;19.32;;;;;;;11.23;95.29;102230.19;1778193;79;21615;-64
2021/10/30 11:01:07;;;;;;;30.30;18.73;;;;;;;11.25;94.85;102232.87;1771329;79;21145;-65
2021/10/30 11:03:41;;;;;;;28.45;17.80;;;;;;;11.25;94.56;102231.52;1731922;80;21089;-60
2021/10/30 11:06:08;;;;;;;31.12;18.55;;;;;;;11.35;93.36;102236.31;1767333;80;21828;-63
2021/10/30 11:08:36;;;;;;;25.02;15.90;;;;;;;11.39;92.63;102238.94;1766244;80;20998;-64
2021/10/30 11:11:24;;;;;;;32.95;17.85;;;;;;;11.42;91.92;102220.09;1758579;80;21501;-64
2021/10/30 11:13:54;;;;;;;28.07;17.07;;;;;;;11.46;91.79;102227.63;1758879;80;21091;-63